createdAt,value
2023-01-03T00:00:48.513Z,9.62
2023-01-03T00:01:48.480Z,9.62
2023-01-03T00:02:48.503Z,9.58
2023-01-03T00:03:48.389Z,9.59
2023-01-03T00:04:49.830Z,9.58
2023-01-03T00:05:48.381Z,9.58
2023-01-03T00:06:48.365Z,9.56
2023-01-03T00:07:48.342Z,9.54
2023-01-03T00:08:48.306Z,9.56
2023-01-03T00:09:48.293Z,9.56
2023-01-03T00:10:48.283Z,9.54
2023-01-03T00:11:48.305Z,9.55
2023-01-03T00:12:48.287Z,9.55
2023-01-03T00:13:48.275Z,9.56
2023-01-03T00:14:48.241Z,9.54
2023-01-03T00:15:48.241Z,9.54
2023-01-03T00:16:48.265Z,9.52
2023-01-03T00:17:48.288Z,9.51
2023-01-03T00:18:48.195Z,9.51
2023-01-03T00:19:48.184Z,9.52
2023-01-03T00:20:48.176Z,9.51
2023-01-03T00:21:48.182Z,9.49
2023-01-03T00:22:48.222Z,9.49
2023-01-03T00:23:48.143Z,9.49
2023-01-03T00:24:48.135Z,9.44
2023-01-03T00:25:48.140Z,9.42
2023-01-03T00:26:48.121Z,9.40
2023-01-03T00:27:48.102Z,9.40
2023-01-03T00:28:48.107Z,9.40
2023-01-03T00:29:48.109Z,9.39
2023-01-03T00:30:48.100Z,9.37
2023-01-03T00:31:48.084Z,9.37
2023-01-03T00:32:48.051Z,9.36
2023-01-03T00:33:48.033Z,9.36
2023-01-03T00:34:48.033Z,9.30
2023-01-03T00:35:48.019Z,9.33
2023-01-03T00:36:48.000Z,9.30
2023-01-03T00:37:48.009Z,9.30
2023-01-03T00:38:47.982Z,9.29
2023-01-03T00:39:47.993Z,9.27
2023-01-03T00:40:47.960Z,9.24
2023-01-03T00:41:47.971Z,9.22
2023-01-03T00:42:47.940Z,9.24
2023-01-03T00:43:47.945Z,9.27
2023-01-03T00:44:47.921Z,9.22
2023-01-03T00:45:47.954Z,9.24
2023-01-03T00:46:47.899Z,9.21
2023-01-03T00:47:47.890Z,9.24
2023-01-03T00:48:47.869Z,9.21
2023-01-03T00:49:47.869Z,9.22
2023-01-03T00:50:47.852Z,9.21
2023-01-03T00:51:47.871Z,9.19
2023-01-03T00:52:47.826Z,9.19
2023-01-03T00:53:47.817Z,9.19
2023-01-03T00:54:47.811Z,9.16
2023-01-03T00:55:47.802Z,9.18
2023-01-03T00:56:47.789Z,9.19
2023-01-03T00:57:47.789Z,9.19
2023-01-03T00:58:47.767Z,9.19
2023-01-03T00:59:47.766Z,9.21
2023-01-03T01:00:47.750Z,9.19
2023-01-03T01:01:48.260Z,9.22
2023-01-03T01:02:47.902Z,9.22
2023-01-03T01:03:47.735Z,9.24
2023-01-03T01:04:47.734Z,9.24
2023-01-03T01:05:47.708Z,9.24
2023-01-03T01:06:47.689Z,9.29
2023-01-03T01:07:47.681Z,9.27
2023-01-03T01:08:47.665Z,9.26
2023-01-03T01:09:47.668Z,9.29
2023-01-03T01:10:47.655Z,9.30
2023-01-03T01:11:47.660Z,9.30
2023-01-03T01:12:47.624Z,9.29
2023-01-03T01:13:47.625Z,9.30
2023-01-03T01:14:47.621Z,9.29
2023-01-03T01:15:47.626Z,9.31
2023-01-03T01:16:47.587Z,9.33
2023-01-03T01:17:47.577Z,9.33
2023-01-03T01:18:47.559Z,9.33
2023-01-03T01:19:47.548Z,9.33
2023-01-03T01:20:47.536Z,9.33
2023-01-03T01:21:47.550Z,9.36
2023-01-03T01:22:47.519Z,9.34
2023-01-03T01:23:47.508Z,9.33
2023-01-03T01:24:47.487Z,9.31
2023-01-03T01:25:47.497Z,9.37
2023-01-03T01:26:47.475Z,9.34
2023-01-03T01:27:47.476Z,9.37
2023-01-03T01:28:47.454Z,9.33
2023-01-03T01:29:47.449Z,9.37
2023-01-03T01:30:47.443Z,9.36
2023-01-03T01:31:47.423Z,9.34
2023-01-03T01:32:47.414Z,9.34
2023-01-03T01:33:47.398Z,9.39
2023-01-03T01:34:47.391Z,9.36
2023-01-03T01:35:47.385Z,9.36
2023-01-03T01:36:47.390Z,9.37
2023-01-03T01:37:47.362Z,9.36
2023-01-03T01:38:47.336Z,9.36
2023-01-03T01:39:47.335Z,9.36
2023-01-03T01:40:47.315Z,9.37
2023-01-03T01:41:47.329Z,9.37
2023-01-03T01:42:47.304Z,9.37
2023-01-03T01:43:47.298Z,9.36
2023-01-03T01:44:47.274Z,9.34
2023-01-03T01:45:47.288Z,9.36
2023-01-03T01:46:47.278Z,9.36
2023-01-03T01:47:47.275Z,9.36
2023-01-03T01:48:47.238Z,9.36
2023-01-03T01:49:47.225Z,9.34
2023-01-03T01:50:47.224Z,9.34
2023-01-03T01:51:47.239Z,9.36
2023-01-03T01:52:47.197Z,9.36
2023-01-03T01:53:47.174Z,9.34
2023-01-03T01:54:47.171Z,9.36
2023-01-03T01:55:47.165Z,9.34
2023-01-03T01:56:47.148Z,9.36
2023-01-03T01:57:47.158Z,9.37
2023-01-03T01:58:47.126Z,9.37
2023-01-03T01:59:47.117Z,9.39
2023-01-03T02:00:47.108Z,9.36
2023-01-03T02:01:47.225Z,9.37
2023-01-03T02:02:47.176Z,9.36
2023-01-03T02:03:47.130Z,9.37
2023-01-03T02:04:47.065Z,9.37
2023-01-03T02:05:47.054Z,9.40
2023-01-03T02:06:47.053Z,9.39
2023-01-03T02:07:47.061Z,9.40
2023-01-03T02:08:47.026Z,9.42
2023-01-03T02:09:47.012Z,9.42
2023-01-03T02:10:47.004Z,9.40
2023-01-03T02:11:46.985Z,9.40
2023-01-03T02:12:47.001Z,9.42
2023-01-03T02:13:46.963Z,9.40
2023-01-03T02:14:46.955Z,9.42
2023-01-03T02:15:47.000Z,9.40
2023-01-03T02:16:46.933Z,9.39
2023-01-03T02:17:46.933Z,9.44
2023-01-03T02:18:46.917Z,9.40
2023-01-03T02:19:46.905Z,9.40
2023-01-03T02:20:46.895Z,9.42
2023-01-03T02:21:46.883Z,9.42
2023-01-03T02:22:46.900Z,9.44
2023-01-03T02:23:46.861Z,9.42
2023-01-03T02:24:46.861Z,9.42
2023-01-03T02:25:46.841Z,9.42
2023-01-03T02:26:46.853Z,9.39
2023-01-03T02:27:46.830Z,9.42
2023-01-03T02:28:46.851Z,9.39
2023-01-03T02:29:46.805Z,9.42
2023-01-03T02:30:46.881Z,9.40
2023-01-03T02:31:46.861Z,9.42
2023-01-03T02:32:46.799Z,9.42
2023-01-03T02:33:46.760Z,9.42
2023-01-03T02:34:46.754Z,9.42
2023-01-03T02:35:46.760Z,9.45
2023-01-03T02:36:46.732Z,9.44
2023-01-03T02:37:46.742Z,9.45
2023-01-03T02:38:46.727Z,9.45
2023-01-03T02:39:46.701Z,9.44
2023-01-03T02:40:46.741Z,9.44
2023-01-03T02:41:46.690Z,9.42
2023-01-03T02:42:46.678Z,9.45
2023-01-03T02:43:46.670Z,9.42
2023-01-03T02:44:46.670Z,9.42
2023-01-03T02:45:46.630Z,9.40
2023-01-03T02:46:46.722Z,9.45
2023-01-03T02:47:46.618Z,9.44
2023-01-03T02:48:46.620Z,9.42
2023-01-03T02:49:46.625Z,9.44
2023-01-03T02:50:46.577Z,9.40
2023-01-03T02:51:46.601Z,9.40
2023-01-03T02:52:46.568Z,9.42
2023-01-03T02:53:46.552Z,9.40
2023-01-03T02:54:46.553Z,9.42
2023-01-03T02:55:46.541Z,9.40
2023-01-03T02:56:46.520Z,9.40
2023-01-03T02:57:46.531Z,9.40
2023-01-03T02:58:46.510Z,9.40
2023-01-03T02:59:46.489Z,9.39
2023-01-03T03:00:46.478Z,9.44
2023-01-03T03:01:46.566Z,9.39
2023-01-03T03:02:46.662Z,9.44
2023-01-03T03:03:46.537Z,9.40
2023-01-03T03:04:46.437Z,9.40
2023-01-03T03:05:46.418Z,9.42
2023-01-03T03:06:46.420Z,9.39
2023-01-03T03:07:46.398Z,9.39
2023-01-03T03:08:46.407Z,9.39
2023-01-03T03:09:46.378Z,9.37
2023-01-03T03:10:46.382Z,9.37
2023-01-03T03:11:46.371Z,9.36
2023-01-03T03:12:46.355Z,9.36
2023-01-03T03:13:46.418Z,9.36
2023-01-03T03:14:46.330Z,9.36
2023-01-03T03:15:46.384Z,9.34
2023-01-03T03:16:46.307Z,9.33
2023-01-03T03:17:46.287Z,9.33
2023-01-03T03:18:46.461Z,9.33
2023-01-03T03:19:46.287Z,9.31
2023-01-03T03:20:46.270Z,9.30
2023-01-03T03:21:46.262Z,9.30
2023-01-03T03:22:46.242Z,9.31
2023-01-03T03:23:46.245Z,9.27
2023-01-03T03:24:46.230Z,9.26
2023-01-03T03:25:46.214Z,9.26
2023-01-03T03:26:46.208Z,9.24
2023-01-03T03:27:46.220Z,9.22
2023-01-03T03:28:46.227Z,9.22
2023-01-03T03:29:46.188Z,9.22
2023-01-03T03:30:46.175Z,9.16
2023-01-03T03:31:46.240Z,9.18
2023-01-03T03:32:46.141Z,9.13
2023-01-03T03:33:46.152Z,9.15
2023-01-03T03:34:46.238Z,9.15
2023-01-03T03:35:46.105Z,9.13
2023-01-03T03:36:46.094Z,9.12
2023-01-03T03:37:46.086Z,9.11
2023-01-03T03:38:46.089Z,9.12
2023-01-03T03:39:46.088Z,9.11
2023-01-03T03:40:46.056Z,9.08
2023-01-03T03:41:46.050Z,9.09
2023-01-03T03:42:46.039Z,9.08
2023-01-03T03:43:46.033Z,9.08
2023-01-03T03:44:46.017Z,9.03
2023-01-03T03:45:45.999Z,9.02
2023-01-03T03:46:52.500Z,8.99
2023-01-03T03:47:47.051Z,9.03
2023-01-03T03:48:46.009Z,8.97
2023-01-03T03:49:45.957Z,8.96
2023-01-03T03:50:45.956Z,8.96
2023-01-03T03:51:45.934Z,8.93
2023-01-03T03:52:45.929Z,8.90
2023-01-03T03:53:45.922Z,8.92
2023-01-03T03:54:46.005Z,8.89
2023-01-03T03:55:45.891Z,8.87
2023-01-03T03:56:45.887Z,8.84
2023-01-03T03:57:45.865Z,8.84
2023-01-03T03:58:45.878Z,8.86
2023-01-03T03:59:45.837Z,8.82
2023-01-03T04:00:45.835Z,8.79
2023-01-03T04:01:45.985Z,8.79
2023-01-03T04:02:45.874Z,8.77
2023-01-03T04:03:45.843Z,8.77
2023-01-03T04:04:45.800Z,8.74
2023-01-03T04:05:45.787Z,8.75
2023-01-03T04:06:45.763Z,8.72
2023-01-03T04:07:45.762Z,8.72
2023-01-03T04:08:45.800Z,8.72
2023-01-03T04:09:45.739Z,8.71
2023-01-03T04:10:45.748Z,8.68
2023-01-03T04:11:45.733Z,8.71
2023-01-03T04:12:45.704Z,8.68
2023-01-03T04:13:45.684Z,8.71
2023-01-03T04:14:45.702Z,8.69
2023-01-03T04:15:45.664Z,8.71
2023-01-03T04:16:45.711Z,8.69
2023-01-03T04:17:45.659Z,8.71
2023-01-03T04:18:45.644Z,8.68
2023-01-03T04:19:45.639Z,8.69
2023-01-03T04:20:45.623Z,8.68
2023-01-03T04:21:45.612Z,8.72
2023-01-03T04:22:45.603Z,8.68
2023-01-03T04:23:45.573Z,8.72
2023-01-03T04:24:45.609Z,8.71
2023-01-03T04:25:45.554Z,8.74
2023-01-03T04:26:45.555Z,8.71
2023-01-03T04:27:45.536Z,8.72
2023-01-03T04:28:45.532Z,8.72
2023-01-03T04:29:45.524Z,8.74
2023-01-03T04:30:45.513Z,8.72
2023-01-03T04:31:45.557Z,8.75
2023-01-03T04:32:45.506Z,8.75
2023-01-03T04:33:45.531Z,8.75
2023-01-03T04:34:45.473Z,8.74
2023-01-03T04:35:45.456Z,8.75
2023-01-03T04:36:45.454Z,8.74
2023-01-03T04:37:45.434Z,8.74
2023-01-03T04:38:45.431Z,8.74
2023-01-03T04:39:45.453Z,8.75
2023-01-03T04:40:45.407Z,8.72
2023-01-03T04:41:45.383Z,8.72
2023-01-03T04:42:45.372Z,8.71
2023-01-03T04:43:45.362Z,8.71
2023-01-03T04:44:45.377Z,8.69
2023-01-03T04:45:45.402Z,8.68
2023-01-03T04:46:52.329Z,8.64
2023-01-03T04:47:46.327Z,8.63
2023-01-03T04:48:45.323Z,8.63
2023-01-03T04:49:45.312Z,8.64
2023-01-03T04:50:45.300Z,8.61
2023-01-03T04:51:45.276Z,8.57
2023-01-03T04:52:45.272Z,8.60
2023-01-03T04:53:45.294Z,8.57
2023-01-03T04:54:45.260Z,8.54
2023-01-03T04:55:45.230Z,8.53
2023-01-03T04:56:45.237Z,8.53
2023-01-03T04:57:45.225Z,8.53
2023-01-03T04:58:45.202Z,8.49
2023-01-03T04:59:45.201Z,8.50
2023-01-03T05:00:45.256Z,8.49
2023-01-03T05:01:45.228Z,8.45
2023-01-03T05:02:45.159Z,8.44
2023-01-03T05:03:45.164Z,8.44
2023-01-03T05:04:45.264Z,8.41
2023-01-03T05:05:45.126Z,8.45
2023-01-03T05:06:45.130Z,8.39
2023-01-03T05:07:45.088Z,8.39
2023-01-03T05:08:45.090Z,8.35
2023-01-03T05:09:45.079Z,8.36
2023-01-03T05:10:45.074Z,8.34
2023-01-03T05:11:45.069Z,8.32
2023-01-03T05:12:45.051Z,8.31
2023-01-03T05:13:45.041Z,8.31
2023-01-03T05:14:45.029Z,8.28
2023-01-03T05:15:45.020Z,8.31
2023-01-03T05:16:45.102Z,8.32
2023-01-03T05:17:44.988Z,8.32
2023-01-03T05:18:44.988Z,8.31
2023-01-03T05:19:45.567Z,8.32
2023-01-03T05:20:44.968Z,8.31
2023-01-03T05:21:44.952Z,8.31
2023-01-03T05:22:44.956Z,8.34
2023-01-03T05:23:44.931Z,8.34
2023-01-03T05:24:44.933Z,8.35
2023-01-03T05:25:44.901Z,8.35
2023-01-03T05:26:44.893Z,8.36
2023-01-03T05:27:44.886Z,8.36
2023-01-03T05:28:44.898Z,8.41
2023-01-03T05:29:44.874Z,8.39
2023-01-03T05:30:44.864Z,8.42
2023-01-03T05:31:44.873Z,8.41
2023-01-03T05:32:44.827Z,8.42
2023-01-03T05:33:44.808Z,8.42
2023-01-03T05:34:44.824Z,8.41
2023-01-03T05:35:44.786Z,8.42
2023-01-03T05:36:44.780Z,8.44
2023-01-03T05:37:44.766Z,8.45
2023-01-03T05:38:44.756Z,8.45
2023-01-03T05:39:44.747Z,8.45
2023-01-03T05:40:44.736Z,8.46
2023-01-03T05:41:44.727Z,8.49
2023-01-03T05:42:44.725Z,8.46
2023-01-03T05:43:44.705Z,8.52
2023-01-03T05:44:44.700Z,8.49
2023-01-03T05:45:44.724Z,8.52
2023-01-03T05:46:44.676Z,8.53
2023-01-03T05:47:44.667Z,8.53
2023-01-03T05:48:44.646Z,8.53
2023-01-03T05:49:44.635Z,8.53
2023-01-03T05:50:44.644Z,8.52
2023-01-03T05:51:44.616Z,8.53
2023-01-03T05:52:44.639Z,8.52
2023-01-03T05:53:44.586Z,8.54
2023-01-03T05:54:44.576Z,8.54
2023-01-03T05:55:44.576Z,8.53
2023-01-03T05:56:44.602Z,8.53
2023-01-03T05:57:44.610Z,8.56
2023-01-03T05:58:44.536Z,8.54
2023-01-03T05:59:44.523Z,8.52
2023-01-03T06:00:44.523Z,8.53
2023-01-03T06:01:44.557Z,8.54
2023-01-03T06:02:44.572Z,8.52
2023-01-03T06:03:44.477Z,8.53
2023-01-03T06:04:44.503Z,8.53
2023-01-03T06:05:49.839Z,8.52
2023-01-03T06:06:45.453Z,8.53
2023-01-03T06:07:44.512Z,8.52
2023-01-03T06:08:44.426Z,8.50
2023-01-03T06:09:44.431Z,8.53
2023-01-03T06:10:44.418Z,8.49
2023-01-03T06:11:44.393Z,8.50
2023-01-03T06:12:44.384Z,8.50
2023-01-03T06:13:44.391Z,8.46
2023-01-03T06:14:44.370Z,8.50
2023-01-03T06:15:44.352Z,8.49
2023-01-03T06:16:44.371Z,8.50
2023-01-03T06:17:44.336Z,8.52
2023-01-03T06:18:44.323Z,8.46
2023-01-03T06:19:44.307Z,8.52
2023-01-03T06:20:44.332Z,8.49
2023-01-03T06:21:44.291Z,8.50
2023-01-03T06:22:44.357Z,8.50
2023-01-03T06:23:44.305Z,8.50
2023-01-03T06:24:44.258Z,8.46
2023-01-03T06:25:44.271Z,8.49
2023-01-03T06:26:44.237Z,8.52
2023-01-03T06:27:44.221Z,8.52
2023-01-03T06:28:44.203Z,8.52
2023-01-03T06:29:44.233Z,8.52
2023-01-03T06:30:44.249Z,8.52
2023-01-03T06:31:44.202Z,8.50
2023-01-03T06:32:44.214Z,8.52
2023-01-03T06:33:44.324Z,8.53
2023-01-03T06:34:44.141Z,8.53
2023-01-03T06:35:44.131Z,8.54
2023-01-03T06:36:44.153Z,8.54
2023-01-03T06:37:44.138Z,8.53
2023-01-03T06:38:44.137Z,8.53
2023-01-03T06:39:44.097Z,8.56
2023-01-03T06:40:45.907Z,8.52
2023-01-03T06:41:44.061Z,8.53
2023-01-03T06:42:44.072Z,8.54
2023-01-03T06:43:44.050Z,8.52
2023-01-03T06:44:44.049Z,8.52
2023-01-03T06:45:44.057Z,8.53
2023-01-03T06:46:44.072Z,8.53
2023-01-03T06:47:44.009Z,8.54
2023-01-03T06:48:43.989Z,8.50
2023-01-03T06:49:43.984Z,8.53
2023-01-03T06:50:44.001Z,8.53
2023-01-03T06:51:44.014Z,8.53
2023-01-03T06:52:43.987Z,8.53
2023-01-03T06:53:43.949Z,8.52
2023-01-03T06:54:43.936Z,8.52
2023-01-03T06:55:43.926Z,8.50
2023-01-03T06:56:43.903Z,8.46
2023-01-03T06:57:43.900Z,8.50
2023-01-03T06:58:43.822Z,8.49
2023-01-03T06:59:43.810Z,8.50
2023-01-03T07:00:43.801Z,8.45
2023-01-03T07:01:43.866Z,8.46
2023-01-03T07:02:43.880Z,8.42
2023-01-03T07:03:43.783Z,8.41
2023-01-03T07:04:43.785Z,8.41
2023-01-03T07:05:43.767Z,8.38
2023-01-03T07:06:43.755Z,8.39
2023-01-03T07:07:43.771Z,8.38
2023-01-03T07:08:48.145Z,8.38
2023-01-03T07:09:44.717Z,8.35
2023-01-03T07:10:43.695Z,8.35
2023-01-03T07:11:43.698Z,8.32
2023-01-03T07:12:43.677Z,8.31
2023-01-03T07:13:43.659Z,8.28
2023-01-03T07:14:43.639Z,8.26
2023-01-03T07:15:43.684Z,8.24
2023-01-03T07:16:43.631Z,8.23
2023-01-03T07:17:43.618Z,8.24
2023-01-03T07:18:45.924Z,8.20
2023-01-03T07:19:44.619Z,8.20
2023-01-03T07:20:43.574Z,8.18
2023-01-03T07:21:43.602Z,8.20
2023-01-03T07:22:43.559Z,8.14
2023-01-03T07:23:43.549Z,8.14
2023-01-03T07:24:43.538Z,8.13
2023-01-03T07:25:43.535Z,8.13
2023-01-03T07:26:43.520Z,8.08
2023-01-03T07:27:43.518Z,8.08
2023-01-03T07:28:43.495Z,8.05
2023-01-03T07:29:43.490Z,8.06
2023-01-03T07:30:43.497Z,8.03
2023-01-03T07:31:43.522Z,8.02
2023-01-03T07:32:43.448Z,8.01
2023-01-03T07:33:43.446Z,7.99
2023-01-03T07:34:43.506Z,7.99
2023-01-03T07:35:43.423Z,7.98
2023-01-03T07:36:43.411Z,7.95
2023-01-03T07:37:43.397Z,7.96
2023-01-03T07:38:43.391Z,7.91
2023-01-03T07:39:43.375Z,7.93
2023-01-03T07:40:43.373Z,7.90
2023-01-03T07:41:43.370Z,7.90
2023-01-03T07:42:43.346Z,7.87
2023-01-03T07:43:43.331Z,7.85
2023-01-03T07:44:43.325Z,7.85
2023-01-03T07:45:43.355Z,7.83
2023-01-03T07:46:43.384Z,7.81
2023-01-03T07:47:43.325Z,7.83
2023-01-03T07:48:43.282Z,7.80
2023-01-03T07:49:43.277Z,7.80
2023-01-03T07:50:43.261Z,7.77
2023-01-03T07:51:43.253Z,7.78
2023-01-03T07:52:43.234Z,7.75
2023-01-03T07:53:43.235Z,7.75
2023-01-03T07:54:43.227Z,7.74
2023-01-03T07:55:43.195Z,7.74
2023-01-03T07:56:43.195Z,7.74
2023-01-03T07:57:43.175Z,7.74
2023-01-03T07:58:43.165Z,7.72
2023-01-03T07:59:43.192Z,7.74
2023-01-03T08:00:43.144Z,7.74
2023-01-03T08:01:43.248Z,7.74
2023-01-03T08:02:43.206Z,7.72
2023-01-03T08:03:43.120Z,7.72
2023-01-03T08:04:43.204Z,7.72
2023-01-03T08:05:43.117Z,7.74
2023-01-03T08:06:43.100Z,7.75
2023-01-03T08:07:43.070Z,7.75
2023-01-03T08:08:43.067Z,7.74
2023-01-03T08:09:43.084Z,7.77
2023-01-03T08:10:43.032Z,7.75
2023-01-03T08:11:43.035Z,7.77
2023-01-03T08:12:43.014Z,7.77
2023-01-03T08:13:43.001Z,7.77
2023-01-03T08:14:42.994Z,7.78
2023-01-03T08:15:43.037Z,7.78
2023-01-03T08:16:42.970Z,7.83
2023-01-03T08:17:42.984Z,7.83
2023-01-03T08:18:42.942Z,7.81
2023-01-03T08:19:45.810Z,7.83
2023-01-03T08:20:42.935Z,7.87
2023-01-03T08:21:42.949Z,7.85
2023-01-03T08:22:42.913Z,7.90
2023-01-03T08:23:42.898Z,7.87
2023-01-03T08:24:42.889Z,7.87
2023-01-03T08:25:42.884Z,7.91
2023-01-03T08:26:42.869Z,7.93
2023-01-03T08:27:49.805Z,7.91
2023-01-03T08:28:43.856Z,7.93
2023-01-03T08:29:44.790Z,7.95
2023-01-03T08:30:42.849Z,7.95
2023-01-03T08:31:43.466Z,7.96
2023-01-03T08:32:43.022Z,7.96
2023-01-03T08:33:43.140Z,7.98
2023-01-03T08:34:43.019Z,7.99
2023-01-03T08:35:42.803Z,8.02
2023-01-03T08:36:42.755Z,7.99
2023-01-03T08:37:42.787Z,8.03
2023-01-03T08:38:42.747Z,8.05
2023-01-03T08:39:42.725Z,8.03
2023-01-03T08:40:42.791Z,8.05
2023-01-03T08:41:42.700Z,8.05
2023-01-03T08:42:42.877Z,8.05
2023-01-03T08:43:42.679Z,8.08
2023-01-03T08:44:42.663Z,8.09
2023-01-03T08:45:42.665Z,8.08
2023-01-03T08:46:42.756Z,8.06
2023-01-03T08:47:42.669Z,8.08
2023-01-03T08:48:42.619Z,8.09
2023-01-03T08:49:42.609Z,8.09
2023-01-03T08:50:42.598Z,8.11
2023-01-03T08:51:42.594Z,8.11
2023-01-03T08:52:42.589Z,8.14
2023-01-03T08:53:42.580Z,8.14
2023-01-03T08:54:42.595Z,8.14
2023-01-03T08:55:42.574Z,8.11
2023-01-03T08:56:42.537Z,8.13
2023-01-03T08:57:42.545Z,8.13
2023-01-03T08:58:42.516Z,8.13
2023-01-03T08:59:42.505Z,8.13
2023-01-03T09:00:42.487Z,8.13
2023-01-03T09:01:42.682Z,8.09
2023-01-03T09:02:42.654Z,8.09
2023-01-03T09:03:42.683Z,8.14
2023-01-03T09:04:42.448Z,8.11
2023-01-03T09:05:42.487Z,8.14
2023-01-03T09:06:42.428Z,8.14
2023-01-03T09:07:42.430Z,8.16
2023-01-03T09:08:42.406Z,8.14
2023-01-03T09:09:42.414Z,8.14
2023-01-03T09:10:47.567Z,8.16
2023-01-03T09:11:43.406Z,8.17
2023-01-03T09:12:42.397Z,8.16
2023-01-03T09:13:42.355Z,8.18
2023-01-03T09:14:42.341Z,8.20
2023-01-03T09:15:42.452Z,8.20
2023-01-03T09:16:48.601Z,8.21
2023-01-03T09:17:43.381Z,8.26
2023-01-03T09:18:42.346Z,8.24
2023-01-03T09:19:42.296Z,8.28
2023-01-03T09:20:42.336Z,8.31
2023-01-03T09:21:42.267Z,8.35
2023-01-03T09:22:42.246Z,8.41
2023-01-03T09:23:42.266Z,8.44
2023-01-03T09:24:42.224Z,8.44
2023-01-03T09:25:42.235Z,8.46
2023-01-03T09:26:42.207Z,8.52
2023-01-03T09:27:42.221Z,8.53
2023-01-03T09:28:42.206Z,8.56
2023-01-03T09:29:42.192Z,8.59
2023-01-03T09:30:42.171Z,8.61
2023-01-03T09:31:42.223Z,8.64
2023-01-03T09:32:42.149Z,8.68
2023-01-03T09:33:42.212Z,8.71
2023-01-03T09:34:42.114Z,8.75
2023-01-03T09:35:42.131Z,8.77
2023-01-03T09:36:42.109Z,8.81
2023-01-03T09:37:48.498Z,8.84
2023-01-03T09:38:43.116Z,8.89
2023-01-03T09:39:42.065Z,8.95
2023-01-03T09:40:42.054Z,8.95
2023-01-03T09:41:42.075Z,8.97
2023-01-03T09:42:42.033Z,8.99
2023-01-03T09:43:42.061Z,9.05
2023-01-03T09:44:42.008Z,9.12
2023-01-03T09:45:42.014Z,9.13
2023-01-03T09:46:42.081Z,9.15
2023-01-03T09:47:41.998Z,9.18
2023-01-03T09:48:42.086Z,9.19
2023-01-03T09:50:04.582Z,9.27
2023-01-03T09:51:16.600Z,9.30
2023-01-03T09:51:42.943Z,9.33
2023-01-03T09:52:41.946Z,9.36
2023-01-03T09:53:41.972Z,9.40
2023-01-03T09:54:41.904Z,9.45
2023-01-03T09:55:41.899Z,9.49
2023-01-03T09:56:41.885Z,9.54
2023-01-03T09:57:41.900Z,9.56
2023-01-03T09:58:41.870Z,9.59
2023-01-03T09:59:41.851Z,9.66
2023-01-03T10:00:41.909Z,9.70
2023-01-03T10:01:42.162Z,9.73
2023-01-03T10:02:41.955Z,9.77
2023-01-03T10:03:46.533Z,9.82
2023-01-03T10:04:42.811Z,9.85
2023-01-03T10:05:41.787Z,9.91
2023-01-03T10:06:41.786Z,9.97
2023-01-03T10:07:41.750Z,10.00
2023-01-03T10:08:41.750Z,10.05
2023-01-03T10:09:41.779Z,10.07
2023-01-03T10:10:41.738Z,10.10
2023-01-03T10:11:41.721Z,10.15
2023-01-03T10:12:41.708Z,10.15
2023-01-03T10:13:41.742Z,10.20
2023-01-03T10:14:41.728Z,10.18
2023-01-03T10:15:41.684Z,10.18
2023-01-03T10:16:42.018Z,10.20
2023-01-03T10:17:41.708Z,10.23
2023-01-03T10:18:41.638Z,10.20
2023-01-03T10:19:41.680Z,10.20
2023-01-03T10:20:41.629Z,10.20
2023-01-03T10:21:41.659Z,10.21
2023-01-03T10:22:41.614Z,10.18
2023-01-03T10:23:41.590Z,10.17
2023-01-03T10:24:41.605Z,10.10
2023-01-03T10:25:41.627Z,10.12
2023-01-03T10:26:41.564Z,10.10
2023-01-03T10:27:41.550Z,10.10
2023-01-03T10:28:41.555Z,10.09
2023-01-03T10:29:41.578Z,10.07
2023-01-03T10:30:41.528Z,10.05
2023-01-03T10:31:41.592Z,10.05
2023-01-03T10:32:41.510Z,10.03
2023-01-03T10:33:41.582Z,10.07
2023-01-03T10:34:41.496Z,10.05
2023-01-03T10:35:41.491Z,10.06
2023-01-03T10:36:41.473Z,10.06
2023-01-03T10:37:41.462Z,10.07
2023-01-03T10:38:47.828Z,10.07
2023-01-03T10:39:42.445Z,10.10
2023-01-03T10:40:41.472Z,10.09
2023-01-03T10:41:41.399Z,10.10
2023-01-03T10:42:41.399Z,10.10
2023-01-03T10:43:41.371Z,10.17
2023-01-03T10:44:41.388Z,10.17
2023-01-03T10:45:46.326Z,10.20
2023-01-03T10:46:42.378Z,10.21
2023-01-03T10:47:41.354Z,10.27
2023-01-03T10:49:08.280Z,10.25
2023-01-03T10:49:42.326Z,10.30
2023-01-03T10:50:41.305Z,10.34
2023-01-03T10:51:43.066Z,10.39
2023-01-03T10:52:41.277Z,10.43
2023-01-03T10:53:41.261Z,10.43
2023-01-03T10:54:41.321Z,10.46
2023-01-03T10:55:41.244Z,10.51
2023-01-03T10:56:41.270Z,10.51
2023-01-03T10:57:41.218Z,10.53
2023-01-03T10:58:41.253Z,10.59
2023-01-03T10:59:41.225Z,10.64
2023-01-03T11:00:41.285Z,10.69
2023-01-03T11:01:41.338Z,10.79
2023-01-03T11:02:41.687Z,10.83
2023-01-03T11:03:44.045Z,10.90
2023-01-03T11:04:42.160Z,10.92
2023-01-03T11:05:41.135Z,10.95
2023-01-03T11:06:41.132Z,10.98
2023-01-03T11:07:41.112Z,11.04
2023-01-03T11:08:41.223Z,11.07
2023-01-03T11:09:43.426Z,11.16
2023-01-03T11:10:42.074Z,11.20
2023-01-03T11:11:41.080Z,11.22
2023-01-03T11:12:41.077Z,11.23
2023-01-03T11:13:41.052Z,11.23
2023-01-03T11:14:41.043Z,11.22
2023-01-03T11:15:41.022Z,11.22
2023-01-03T11:16:41.073Z,11.20
2023-01-03T11:17:40.992Z,11.20
2023-01-03T11:18:40.999Z,11.26
2023-01-03T11:19:41.004Z,11.31
2023-01-03T11:20:40.975Z,11.31
2023-01-03T11:21:40.959Z,11.34
2023-01-03T11:22:40.942Z,11.35
2023-01-03T11:23:40.935Z,11.35
2023-01-03T11:24:40.949Z,11.40
2023-01-03T11:25:40.949Z,11.44
2023-01-03T11:26:40.955Z,11.48
2023-01-03T11:27:40.882Z,11.51
2023-01-03T11:28:40.882Z,11.51
2023-01-03T11:29:40.878Z,11.52
2023-01-03T11:30:40.877Z,11.52
2023-01-03T11:31:40.909Z,11.53
2023-01-03T11:32:40.852Z,11.52
2023-01-03T11:33:40.821Z,11.52
2023-01-03T11:35:20.251Z,11.52
2023-01-03T11:35:41.812Z,11.48
2023-01-03T11:36:40.812Z,11.49
2023-01-03T11:37:40.829Z,11.49
2023-01-03T11:38:40.773Z,11.45
2023-01-03T11:39:40.754Z,11.48
2023-01-03T11:40:40.979Z,11.43
2023-01-03T11:41:40.748Z,11.40
2023-01-03T11:42:40.723Z,11.41
2023-01-03T11:43:40.720Z,11.40
2023-01-03T11:44:40.701Z,11.40
2023-01-03T11:45:48.131Z,11.37
2023-01-03T11:46:41.788Z,11.37
2023-01-03T11:47:40.728Z,11.35
2023-01-03T11:48:40.669Z,11.35
2023-01-03T11:49:40.709Z,11.35
2023-01-03T11:50:40.653Z,11.34
2023-01-03T11:51:40.661Z,11.34
2023-01-03T11:52:40.617Z,11.34
2023-01-03T11:53:40.598Z,11.33
2023-01-03T11:54:40.591Z,11.33
2023-01-03T11:55:40.590Z,11.31
2023-01-03T11:56:40.576Z,11.31
2023-01-03T11:57:40.560Z,11.31
2023-01-03T11:58:40.555Z,11.26
2023-01-03T11:59:40.531Z,11.26
2023-01-03T12:00:40.546Z,11.23
2023-01-03T12:01:40.602Z,11.20
2023-01-03T12:02:40.583Z,11.19
2023-01-03T12:03:40.584Z,11.20
2023-01-03T12:04:40.540Z,11.20
2023-01-03T12:05:40.505Z,11.19
2023-01-03T12:06:40.482Z,11.15
2023-01-03T12:07:48.769Z,11.16
2023-01-03T12:08:41.496Z,11.13
2023-01-03T12:09:40.452Z,11.10
2023-01-03T12:10:40.429Z,11.08
2023-01-03T12:11:40.410Z,11.07
2023-01-03T12:12:40.397Z,11.04
2023-01-03T12:13:40.386Z,11.01
2023-01-03T12:14:40.392Z,11.00
2023-01-03T12:15:40.467Z,11.01
2023-01-03T12:16:40.381Z,11.01
2023-01-03T12:17:40.348Z,10.97
2023-01-03T12:18:40.322Z,10.98
2023-01-03T12:19:40.309Z,10.95
2023-01-03T12:20:40.309Z,10.97
2023-01-03T12:21:40.325Z,10.97
2023-01-03T12:22:40.309Z,10.94
2023-01-03T12:23:40.310Z,10.90
2023-01-03T12:24:40.259Z,10.89
2023-01-03T12:25:40.255Z,10.87
2023-01-03T12:26:40.242Z,10.87
2023-01-03T12:27:40.219Z,10.86
2023-01-03T12:28:40.214Z,10.84
2023-01-03T12:29:40.211Z,10.82
2023-01-03T12:30:40.273Z,10.82
2023-01-03T12:31:40.481Z,10.83
2023-01-03T12:32:40.168Z,10.79
2023-01-03T12:33:40.157Z,10.82
2023-01-03T12:34:40.166Z,10.79
2023-01-03T12:35:40.132Z,10.82
2023-01-03T12:36:40.139Z,10.82
2023-01-03T12:37:40.108Z,10.84
2023-01-03T12:38:40.120Z,10.86
2023-01-03T12:39:41.940Z,10.89
2023-01-03T12:40:40.095Z,10.89
2023-01-03T12:41:40.072Z,10.95
2023-01-03T12:42:40.082Z,10.94
2023-01-03T12:43:40.040Z,10.97
2023-01-03T12:44:40.041Z,10.97
2023-01-03T12:45:40.024Z,10.97
2023-01-03T12:46:40.080Z,11.01
2023-01-03T12:47:40.002Z,11.05
2023-01-03T12:48:40.001Z,11.08
2023-01-03T12:49:40.020Z,11.10
2023-01-03T12:50:39.973Z,11.12
2023-01-03T12:51:39.969Z,11.18
2023-01-03T12:52:39.960Z,11.19
2023-01-03T12:53:39.951Z,11.20
2023-01-03T12:54:39.926Z,11.22
2023-01-03T12:55:39.910Z,11.27
2023-01-03T12:56:39.912Z,11.25
2023-01-03T12:57:39.878Z,11.30
2023-01-03T12:58:40.058Z,11.31
2023-01-03T12:59:39.888Z,11.31
2023-01-03T13:00:39.937Z,11.34
2023-01-03T13:01:39.992Z,11.37
2023-01-03T13:02:40.056Z,11.38
2023-01-03T13:03:39.859Z,11.41
2023-01-03T13:04:39.841Z,11.44
2023-01-03T13:05:39.799Z,11.49
2023-01-03T13:06:39.889Z,11.51
2023-01-03T13:07:39.787Z,11.58
2023-01-03T13:08:39.772Z,11.60
2023-01-03T13:09:39.771Z,11.60
2023-01-03T13:10:39.748Z,11.62
2023-01-03T13:11:39.732Z,11.63
2023-01-03T13:12:39.743Z,11.67